createdAt,value
2023-01-27T00:00:51.930Z,-0.55
2023-01-27T00:03:19.081Z,-0.55
2023-01-27T00:05:47.377Z,-0.53
2023-01-27T00:08:15.460Z,-0.55
2023-01-27T00:10:42.765Z,-0.54
2023-01-27T00:13:32.289Z,-0.56
2023-01-27T00:15:59.690Z,-0.59
2023-01-27T00:18:26.843Z,-0.57
2023-01-27T00:21:12.158Z,-0.63
2023-01-27T00:23:57.418Z,-0.73
2023-01-27T00:26:24.343Z,-0.76
2023-01-27T00:28:51.284Z,-0.76
2023-01-27T00:31:36.830Z,-0.71
2023-01-27T00:34:10.637Z,-0.72
2023-01-27T00:36:39.562Z,-0.65
2023-01-27T00:39:08.155Z,-0.62
2023-01-27T00:41:35.839Z,-0.86
2023-01-27T00:44:05.066Z,-0.74
2023-01-27T00:46:32.103Z,-0.56
2023-01-27T00:48:59.230Z,-0.62
2023-01-27T00:51:26.309Z,-0.58
2023-01-27T00:53:53.300Z,-0.54
2023-01-27T00:56:20.333Z,-0.71
2023-01-27T00:58:47.333Z,-0.56
2023-01-27T01:01:17.567Z,-0.57
2023-01-27T01:03:44.909Z,-0.58
2023-01-27T01:06:14.988Z,-0.62
2023-01-27T01:08:42.434Z,-0.69
2023-01-27T01:11:14.029Z,-0.73
2023-01-27T01:13:42.660Z,-0.77
2023-01-27T01:16:12.739Z,-0.76
2023-01-27T01:18:39.784Z,-0.77
2023-01-27T01:21:07.268Z,-0.75
2023-01-27T01:23:37.806Z,-0.76
2023-01-27T01:26:04.880Z,-0.78
2023-01-27T01:28:32.049Z,-0.81
2023-01-27T01:31:10.706Z,-0.80
2023-01-27T01:33:37.823Z,-0.85
2023-01-27T01:36:09.805Z,-0.83
2023-01-27T01:38:37.284Z,-0.76
2023-01-27T01:41:06.268Z,-0.77
2023-01-27T01:43:33.444Z,-0.79
2023-01-27T01:46:02.067Z,-0.77
2023-01-27T01:48:55.050Z,-0.80
2023-01-27T01:51:31.303Z,-0.91
2023-01-27T01:54:07.746Z,-0.81
2023-01-27T01:56:39.951Z,-0.82
2023-01-27T01:59:12.717Z,-0.82
2023-01-27T02:01:39.631Z,-0.85
2023-01-27T02:04:13.223Z,-1.10
2023-01-27T02:06:46.249Z,-1.04
2023-01-27T02:09:51.769Z,-0.91
2023-01-27T02:12:41.218Z,-0.91
2023-01-27T02:15:31.797Z,-0.90
2023-01-27T02:18:21.826Z,-0.91
2023-01-27T02:21:12.184Z,-0.90
2023-01-27T02:24:04.404Z,-0.90
2023-01-27T02:26:38.871Z,-1.07
2023-01-27T02:29:08.481Z,-0.94
2023-01-27T02:31:35.897Z,-0.96
2023-01-27T02:34:14.306Z,-1.15
2023-01-27T02:36:48.981Z,-0.93
2023-01-27T02:39:18.720Z,-0.91
2023-01-27T02:41:52.945Z,-0.92
2023-01-27T02:44:19.880Z,-0.93
2023-01-27T02:46:47.272Z,-0.91
2023-01-27T02:49:14.539Z,-0.96
2023-01-27T02:51:41.753Z,-0.89
2023-01-27T02:54:09.197Z,-0.93
2023-01-27T02:56:36.100Z,-1.00
2023-01-27T02:59:03.072Z,-1.01
2023-01-27T03:01:32.857Z,-1.06
2023-01-27T03:04:00.599Z,-1.08
2023-01-27T03:06:27.463Z,-1.17
2023-01-27T03:08:54.423Z,-1.14
2023-01-27T03:11:50.658Z,-1.19
2023-01-27T03:14:17.629Z,-1.18
2023-01-27T03:17:03.273Z,-1.16
2023-01-27T03:19:30.278Z,-1.23
2023-01-27T03:21:57.149Z,-1.20
2023-01-27T03:24:24.281Z,-1.20
2023-01-27T03:26:51.257Z,-1.15
2023-01-27T03:29:36.673Z,-1.12
2023-01-27T03:32:03.819Z,-1.08
2023-01-27T03:34:30.734Z,-1.04
2023-01-27T03:37:16.032Z,-1.04
2023-01-27T03:40:01.879Z,-1.06
2023-01-27T03:42:47.537Z,-1.03
2023-01-27T03:45:33.247Z,-1.06
2023-01-27T03:48:00.429Z,-1.04
2023-01-27T03:50:38.083Z,-1.09
2023-01-27T03:53:06.137Z,-1.06
2023-01-27T03:55:35.426Z,-1.06
2023-01-27T03:58:18.469Z,-1.04
2023-01-27T04:01:00.126Z,-1.01
2023-01-27T04:03:48.574Z,-1.02
2023-01-27T04:06:46.034Z,-1.03
2023-01-27T04:09:17.973Z,-1.10
2023-01-27T04:11:58.737Z,-1.02
2023-01-27T04:14:35.884Z,-1.02
2023-01-27T04:17:08.287Z,-1.21
2023-01-27T04:19:35.363Z,-0.98
2023-01-27T04:22:02.328Z,-0.98
2023-01-27T04:24:29.531Z,-0.98
2023-01-27T04:26:58.187Z,-1.00
2023-01-27T04:29:28.387Z,-1.02
2023-01-27T04:31:56.186Z,-1.08
2023-01-27T04:34:23.353Z,-1.10
2023-01-27T04:36:50.599Z,-1.14
2023-01-27T04:39:18.515Z,-1.18
2023-01-27T04:41:45.792Z,-1.26
2023-01-27T04:44:13.075Z,-1.30
2023-01-27T04:46:40.725Z,-1.41
2023-01-27T04:49:08.049Z,-1.46
2023-01-27T04:51:35.376Z,-1.51
2023-01-27T04:54:04.028Z,-1.55
2023-01-27T04:56:34.498Z,-1.60
2023-01-27T04:59:04.114Z,-1.57
2023-01-27T05:01:31.089Z,-1.62
2023-01-27T05:03:58.375Z,-1.62
2023-01-27T05:06:26.100Z,-1.63
2023-01-27T05:08:53.511Z,-1.60
2023-01-27T05:11:20.970Z,-1.60
2023-01-27T05:13:48.094Z,-1.62
2023-01-27T05:16:19.349Z,-1.65
2023-01-27T05:18:48.870Z,-1.73
2023-01-27T05:21:18.552Z,-1.70
2023-01-27T05:23:45.981Z,-1.90
2023-01-27T05:26:14.374Z,-1.55
2023-01-27T05:28:43.540Z,-1.52
2023-01-27T05:31:13.964Z,-1.52
2023-01-27T05:33:42.309Z,-1.56
2023-01-27T05:36:12.732Z,-1.82
2023-01-27T05:38:40.525Z,-1.61
2023-01-27T05:41:09.876Z,-1.58
2023-01-27T05:43:38.968Z,-1.52
2023-01-27T05:46:07.407Z,-1.63
2023-01-27T05:48:36.295Z,-1.55
2023-01-27T05:51:03.407Z,-1.62
2023-01-27T05:53:30.826Z,-1.60
2023-01-27T05:55:57.828Z,-1.79
2023-01-27T05:58:25.825Z,-1.74
2023-01-27T06:00:53.520Z,-1.62
2023-01-27T06:03:20.979Z,-1.58
2023-01-27T06:05:56.322Z,-1.56
2023-01-27T06:08:27.157Z,-1.82
2023-01-27T06:10:54.468Z,-1.63
2023-01-27T06:13:23.917Z,-1.60
2023-01-27T06:15:51.362Z,-1.64
2023-01-27T06:18:19.859Z,-1.61
2023-01-27T06:20:47.130Z,-1.64
2023-01-27T06:23:16.435Z,-1.58
2023-01-27T06:25:48.604Z,-1.60
2023-01-27T06:28:28.307Z,-1.58
2023-01-27T06:30:56.949Z,-1.57
2023-01-27T06:33:24.007Z,-1.85
2023-01-27T06:35:50.968Z,-1.61
2023-01-27T06:38:17.937Z,-1.80
2023-01-27T06:40:44.911Z,-1.51
2023-01-27T06:43:13.960Z,-1.62
2023-01-27T06:45:41.370Z,-1.58
2023-01-27T06:48:08.913Z,-1.56
2023-01-27T06:50:37.062Z,-1.62
2023-01-27T06:53:06.757Z,-1.59
2023-01-27T06:55:35.024Z,-1.60
2023-01-27T06:58:04.718Z,-1.62
2023-01-27T07:00:31.761Z,-1.85
2023-01-27T07:02:58.733Z,-1.54
2023-01-27T07:05:25.856Z,-1.51
2023-01-27T07:07:52.765Z,-1.53
2023-01-27T07:10:19.799Z,-1.47
2023-01-27T07:12:46.676Z,-1.56
2023-01-27T07:15:14.033Z,-1.62
2023-01-27T07:17:41.306Z,-1.57
2023-01-27T07:20:12.362Z,-1.52
2023-01-27T07:22:39.777Z,-1.49
2023-01-27T07:25:07.428Z,-1.37
2023-01-27T07:27:34.291Z,-1.32
2023-01-27T07:30:01.240Z,-1.31
2023-01-27T07:32:28.580Z,-1.29
2023-01-27T07:34:55.709Z,-1.24
2023-01-27T07:37:22.580Z,-1.34
2023-01-27T07:39:49.506Z,-1.23
2023-01-27T07:42:16.570Z,-1.29
2023-01-27T07:44:43.509Z,-1.17
2023-01-27T07:47:10.425Z,-1.21
2023-01-27T07:49:38.713Z,-1.15
